Current | Forecast
Updated: 11:30 PM EET on January 22, 2018
Observed at Kyiv, Ukraine
Temperature -9°C
Windchill -15°C
Humidity 93%
Dew Point -10°C
Wind NNE at 14 km/h
Pressure 1020 hPa (Steady)
Conditions Overcast
Visibility 5.0 kilometers
UV 0 out of 16
Clouds Overcast (OVC) : 91 m
Yesterday's Maximum -5°C
Yesterday's Minimum -8°C approx.
Yesterday's Heating Degree Days 45 approx.
Sunrise7:46 AM EET
Sunset4:37 PM EET
Moon Rise10:18 AM EET
Moon Set10:20 PM EET
Moon PhaseMoon Phase
Waxing Crescent
Raw METARMETAR UKKK 222130Z 03004MPS 5000 BR OVC003 M09/M10 Q1020 R08/810350 TEMPO 1200 BR OVC002


Monday
. High: 60° F.
Tuesday
. High: 62° F.
Wednesday
. High: 66° F.
Thursday
. High: 68° F.
Friday
. High: 57° F.
Saturday
. High: 60° F.
Sunday
. High: 64° F.
Monday
. High: 64° F.

Units: English | Metric

Find the Weather for any City, State or Zipcode, or Country:

U.S. State List | Severe Weather | Tropical Storms | Ski Conditions
United States | Canada | Central America | South America | Asia | Europe | Australia | Africa | Islands

Weather Underground

© Copyright 2018
The Weather Company, LLC